Time;durP1;ratioP1;P1;durP2;ratioP2;P2;SDS_P1;SDS_P2;PMS_P1;PMS_P2;Temp;Humidity;BMP_temperature;BMP_pressure;BME280_temperature;BME280_humidity;BME280_pressure;Samples;Min_cycle;Max_cycle;Signal;HPM_P1;HPM_P2
2022/11/26 00:02:30;;;;;;;68.72;15.23;;;4.00;99.90;;;;;;5051891;28;20044;-73
2022/11/26 00:04:57;;;;;;;53.92;15.63;;;4.00;99.90;;;;;;5051855;28;20063;-72
2022/11/26 00:07:27;;;;;;;64.75;17.10;;;4.00;99.90;;;;;;5052548;28;20369;-74
2022/11/26 00:09:54;;;;;;;70.93;17.90;;;4.00;99.90;;;;;;5055801;28;20045;-74
2022/11/26 00:12:23;;;;;;;120.85;19.98;;;4.00;99.90;;;;;;5054496;28;20040;-73
2022/11/26 00:14:49;;;;;;;87.75;17.77;;;4.00;99.90;;;;;;5055722;28;20131;-72
2022/11/26 00:17:19;;;;;;;92.85;18.63;;;4.00;99.90;;;;;;5055651;28;20083;-73
2022/11/26 00:19:45;;;;;;;64.80;17.60;;;3.90;99.90;;;;;;5053931;28;20124;-73
2022/11/26 00:22:27;;;;;;;54.40;16.50;;;3.80;99.90;;;;;;5056001;28;20052;-74
2022/11/26 00:24:53;;;;;;;55.60;14.80;;;3.80;99.90;;;;;;5055592;28;20055;-73
2022/11/26 00:27:21;;;;;;;70.53;15.57;;;3.80;99.90;;;;;;5037517;28;20049;-72
2022/11/26 00:29:46;;;;;;;;;;;3.80;99.90;;;;;;5056395;28;20049;-73
2022/11/26 00:32:18;;;;;;;49.58;14.32;;;3.80;99.90;;;;;;5037478;28;19939;-73
2022/11/26 00:34:44;;;;;;;56.70;14.63;;;3.80;99.90;;;;;;5055829;28;20045;-73
2022/11/26 00:37:26;;;;;;;44.13;16.02;;;3.80;99.90;;;;;;5055606;28;20071;-73
2022/11/26 00:39:52;;;;;;;44.85;15.73;;;3.70;99.90;;;;;;5056226;28;20343;-72
2022/11/26 00:42:18;;;;;;;45.45;14.75;;;3.70;99.90;;;;;;5053943;28;20056;-72
2022/11/26 00:44:45;;;;;;;40.88;13.88;;;3.70;99.90;;;;;;5054752;28;20389;-73
2022/11/26 00:47:10;;;;;;;39.17;14.07;;;3.70;99.90;;;;;;5053919;28;20136;-73
2022/11/26 00:49:36;;;;;;;39.75;14.73;;;3.70;99.90;;;;;;5054349;28;20223;-72
2022/11/26 00:52:20;;;;;;;54.92;17.20;;;3.70;99.90;;;;;;5053657;28;20049;-72
2022/11/26 00:54:46;;;;;;;70.82;16.38;;;3.70;99.90;;;;;;5053700;28;20111;-72
2022/11/26 00:57:11;;;;;;;53.78;17.70;;;3.70;99.90;;;;;;5037119;28;20049;-72
2022/11/26 00:59:37;;;;;;;60.72;18.48;;;3.80;99.90;;;;;;5054400;28;20048;-72
2022/11/26 01:02:03;;;;;;;59.05;15.52;;;3.70;99.90;;;;;;5054044;28;20128;-72
2022/11/26 01:04:28;;;;;;;53.53;16.80;;;3.70;99.90;;;;;;5054664;28;20041;-72
2022/11/26 01:06:54;;;;;;;45.45;14.30;;;3.60;99.90;;;;;;5054052;28;20428;-74
2022/11/26 01:09:20;;;;;;;39.60;14.38;;;3.60;99.90;;;;;;5054539;28;20315;-73
2022/11/26 01:11:47;;;;;;;45.80;13.80;;;3.60;99.90;;;;;;5054576;28;20045;-73
2022/11/26 01:14:16;;;;;;;44.33;14.02;;;3.60;99.90;;;;;;5054461;28;20057;-72
2022/11/26 01:16:43;;;;;;;40.95;14.05;;;3.60;99.90;;;;;;5054237;28;20475;-72
2022/11/26 01:19:11;;;;;;;43.67;14.00;;;3.60;99.90;;;;;;5060117;28;20055;-72
2022/11/26 01:21:38;;;;;;;50.60;15.23;;;3.60;99.90;;;;;;5073944;28;20091;-72
2022/11/26 01:24:04;;;;;;;47.25;15.40;;;3.60;99.90;;;;;;5074394;28;20051;-72
2022/11/26 01:26:33;;;;;;;41.67;15.10;;;3.60;99.90;;;;;;5057041;28;20456;-72
2022/11/26 01:28:59;;;;;;;44.50;14.98;;;3.60;99.90;;;;;;5074153;28;20295;-72
2022/11/26 01:31:27;;;;;;;45.70;15.18;;;3.50;99.90;;;;;;5039545;28;20358;-71
2022/11/26 01:33:53;;;;;;;46.70;14.60;;;3.50;99.90;;;;;;5074241;28;20054;-72
2022/11/26 01:36:36;;;;;;;38.60;13.05;;;3.50;99.90;;;;;;5056117;28;20129;-72
2022/11/26 01:39:09;;;;;;;43.22;13.93;;;3.40;99.90;;;;;;5056266;28;20044;-71
2022/11/26 01:41:51;;;;;;;43.33;15.27;;;3.50;99.90;;;;;;5074362;28;20041;-76
2022/11/26 01:44:21;;;;;;;50.45;14.70;;;3.40;99.90;;;;;;5074183;28;20044;-72
2022/11/26 01:46:48;;;;;;;50.97;13.73;;;3.50;99.90;;;;;;5057016;28;20045;-72
2022/11/26 01:49:24;;;;;;;40.90;13.27;;;3.50;99.90;;;;;;5056019;28;20044;-72
2022/11/26 01:52:01;;;;;;;43.03;13.52;;;3.50;99.90;;;;;;5056152;28;20091;-72
2022/11/26 01:54:27;;;;;;;44.03;14.23;;;3.50;99.90;;;;;;5073890;28;20040;-73
2022/11/26 01:56:55;;;;;;;37.97;13.77;;;3.50;99.90;;;;;;5073294;28;20044;-71
2022/11/26 01:59:25;;;;;;;48.58;14.15;;;3.50;99.90;;;;;;5073611;28;20040;-72
2022/11/26 02:01:53;;;;;;;53.17;15.50;;;3.50;99.90;;;;;;5073439;28;20082;-72
2022/11/26 02:04:28;;;;;;;43.58;14.18;;;3.50;99.90;;;;;;5073624;28;20202;-72
2022/11/26 02:06:56;;;;;;;40.72;14.07;;;3.40;99.90;;;;;;5074143;28;20380;-73
2022/11/26 02:09:24;;;;;;;44.95;14.25;;;3.40;99.90;;;;;;5073387;28;20045;-73
2022/11/26 02:11:50;;;;;;;45.15;14.30;;;3.40;99.90;;;;;;5055628;28;20061;-73
2022/11/26 02:14:18;;;;;;;47.78;14.82;;;3.40;99.90;;;;;;5073119;28;20118;-71
2022/11/26 02:17:07;;;;;;;45.78;13.82;;;3.40;99.90;;;;;;5073344;28;20139;-71
2022/11/26 02:20:07;;;;;;;44.47;14.30;;;3.40;99.90;;;;;;5073304;28;20060;-72
2022/11/26 02:22:48;;;;;;;44.42;13.45;;;3.40;99.90;;;;;;5055322;28;20062;-73
2022/11/26 02:25:32;;;;;;;43.20;13.32;;;3.40;99.90;;;;;;5073467;28;20051;-73
2022/11/26 02:28:10;;;;;;;54.13;14.82;;;3.30;99.90;;;;;;5073424;28;20433;-73
2022/11/26 02:30:40;;;;;;;45.00;13.68;;;3.40;99.90;;;;;;5072537;28;20051;-73
2022/11/26 02:33:19;;;;;;;53.33;15.35;;;3.40;99.90;;;;;;5054522;28;20131;-74
2022/11/26 02:35:58;;;;;;;50.72;15.32;;;3.40;99.90;;;;;;5039623;28;20056;-75
2022/11/26 02:38:31;;;;;;;49.25;13.85;;;3.40;99.90;;;;;;5073403;28;20052;-75
2022/11/26 02:40:58;;;;;;;43.53;14.30;;;3.40;99.90;;;;;;5055812;28;20055;-74
2022/11/26 02:43:25;;;;;;;49.45;14.07;;;3.40;99.90;;;;;;5056514;28;20096;-75
2022/11/26 02:46:01;;;;;;;45.45;14.48;;;3.30;99.90;;;;;;5074559;28;20048;-74
2022/11/26 02:48:33;;;;;;;45.40;13.95;;;3.40;99.90;;;;;;5074339;28;20338;-74
2022/11/26 02:51:04;;;;;;;52.67;15.05;;;3.40;99.90;;;;;;5073192;28;20048;-74
2022/11/26 02:53:32;;;;;;;62.53;14.55;;;3.40;99.90;;;;;;5073726;28;20193;-75
2022/11/26 02:56:06;;;;;;;56.80;14.40;;;3.40;99.90;;;;;;5055719;28;20072;-74
2022/11/26 02:58:32;;;;;;;45.20;14.45;;;3.40;99.90;;;;;;5038901;28;20067;-74
2022/11/26 03:01:02;;;;;;;41.90;13.10;;;3.40;99.90;;;;;;5038716;28;20201;-74
2022/11/26 03:03:33;;;;;;;46.30;13.43;;;3.40;99.90;;;;;;5055371;28;20120;-74
2022/11/26 03:06:03;;;;;;;52.90;16.02;;;3.40;99.90;;;;;;5055843;28;20080;-75
2022/11/26 03:08:31;;;;;;;56.30;14.35;;;3.40;99.90;;;;;;5073445;28;20142;-75
2022/11/26 03:10:57;;;;;;;49.22;13.50;;;3.40;99.90;;;;;;5055492;28;20056;-75
2022/11/26 03:13:23;;;;;;;42.20;13.25;;;3.40;99.90;;;;;;5056087;28;20045;-74
2022/11/26 03:15:49;;;;;;;39.08;14.15;;;3.30;99.90;;;;;;5055391;28;20128;-75
2022/11/26 03:18:14;;;;;;;44.40;13.52;;;3.40;99.90;;;;;;5039002;28;20044;-76
2022/11/26 03:20:40;;;;;;;42.03;14.75;;;3.40;99.90;;;;;;5055200;28;20051;-75
2022/11/26 03:23:06;;;;;;;52.15;15.55;;;3.40;99.90;;;;;;5054693;28;20044;-75
2022/11/26 03:25:33;;;;;;;56.80;15.10;;;3.40;99.90;;;;;;5073460;28;20048;-75
2022/11/26 03:27:58;;;;;;;44.15;14.57;;;3.40;99.90;;;;;;5038845;28;20041;-75
2022/11/26 03:30:24;;;;;;;46.05;14.80;;;3.40;99.90;;;;;;5073053;28;20051;-75
2022/11/26 03:32:50;;;;;;;48.65;15.38;;;3.40;99.90;;;;;;5055431;28;20503;-74
2022/11/26 03:35:16;;;;;;;43.17;14.82;;;3.40;99.90;;;;;;5055155;28;20075;-75
2022/11/26 03:37:42;;;;;;;52.30;15.88;;;3.40;99.90;;;;;;5072892;28;20059;-75
2022/11/26 03:40:09;;;;;;;45.35;15.32;;;3.40;99.90;;;;;;5055074;28;20155;-75
2022/11/26 03:42:35;;;;;;;49.17;14.90;;;3.40;99.90;;;;;;5073559;28;20431;-74
2022/11/26 03:45:01;;;;;;;55.88;15.30;;;3.40;99.90;;;;;;5059127;28;20443;-73
2022/11/26 03:47:27;;;;;;;50.83;16.08;;;3.30;99.90;;;;;;5041899;28;20088;-74
2022/11/26 03:49:53;;;;;;;43.38;14.20;;;3.40;99.90;;;;;;5076672;28;20041;-74
2022/11/26 03:52:19;;;;;;;49.40;15.45;;;3.40;99.90;;;;;;5078400;28;20044;-75
2022/11/26 03:54:45;;;;;;;52.87;15.03;;;3.30;99.90;;;;;;5077994;28;20094;-74
2022/11/26 03:57:11;;;;;;;50.58;15.30;;;3.30;99.90;;;;;;5077499;28;20044;-75
2022/11/26 03:59:37;;;;;;;54.13;16.05;;;3.30;99.90;;;;;;5082954;28;20041;-75
2022/11/26 04:02:03;;;;;;;51.00;14.27;;;3.30;99.90;;;;;;5090095;28;20490;-73
2022/11/26 04:04:30;;;;;;;52.83;15.85;;;3.20;99.90;;;;;;5088305;28;20047;-73
2022/11/26 04:06:55;;;;;;;52.15;16.10;;;3.20;99.90;;;;;;5077026;28;20149;-72
2022/11/26 04:09:22;;;;;;;56.83;15.70;;;3.20;99.90;;;;;;5075939;28;20076;-77
2022/11/26 04:11:47;;;;;;;48.40;15.05;;;3.30;99.90;;;;;;5057743;28;20443;-74
2022/11/26 04:14:13;;;;;;;55.40;15.75;;;3.30;99.90;;;;;;5075637;28;20045;-75
2022/11/26 04:16:39;;;;;;;45.08;14.57;;;3.30;99.90;;;;;;5075328;28;20445;-75
2022/11/26 04:19:05;;;;;;;57.90;15.48;;;3.30;99.90;;;;;;5057162;28;20081;-74
2022/11/26 04:21:30;;;;;;;52.55;16.02;;;3.30;99.90;;;;;;5075750;28;20048;-73
2022/11/26 04:23:56;;;;;;;50.05;15.38;;;3.30;99.90;;;;;;5075326;28;20048;-72
2022/11/26 04:26:22;;;;;;;67.53;15.98;;;3.30;99.90;;;;;;5041219;28;20366;-74
2022/11/26 04:28:49;;;;;;;48.97;15.88;;;3.30;99.90;;;;;;5075569;28;20049;-74
2022/11/26 04:31:15;;;;;;;52.03;15.15;;;3.30;99.90;;;;;;5075010;28;20107;-74
2022/11/26 04:33:42;;;;;;;46.10;15.05;;;3.30;99.90;;;;;;5075708;28;20045;-73
2022/11/26 04:36:08;;;;;;;52.95;14.35;;;3.30;99.90;;;;;;5075222;28;20048;-74
2022/11/26 04:38:33;;;;;;;51.42;15.50;;;3.30;99.90;;;;;;5040258;28;20185;-74
2022/11/26 04:40:59;;;;;;;53.60;15.77;;;3.30;99.90;;;;;;5056817;28;20114;-75
2022/11/26 04:43:25;;;;;;;49.13;15.30;;;3.20;99.90;;;;;;5057518;28;20052;-75
2022/11/26 04:45:51;;;;;;;48.38;16.25;;;3.20;99.90;;;;;;5057067;28;20079;-74
2022/11/26 04:48:17;;;;;;;58.03;15.68;;;3.20;99.90;;;;;;5074334;28;20071;-75
2022/11/26 04:50:42;;;;;;;64.70;17.85;;;3.20;99.90;;;;;;5074648;28;20040;-74
2022/11/26 04:53:09;;;;;;;53.05;15.75;;;3.30;99.90;;;;;;5074661;28;20051;-75
2022/11/26 04:55:35;;;;;;;52.85;14.75;;;3.30;99.90;;;;;;5073647;28;20049;-75
2022/11/26 04:58:00;;;;;;;57.15;16.27;;;3.30;99.90;;;;;;5074542;28;20108;-74
2022/11/26 05:00:26;;;;;;;49.88;14.38;;;3.30;99.90;;;;;;5040154;28;20104;-74
2022/11/26 05:02:52;;;;;;;59.72;15.82;;;3.30;99.90;;;;;;5056982;28;20041;-73
2022/11/26 05:05:18;;;;;;;53.50;15.52;;;3.30;99.90;;;;;;5040132;28;20130;-74
2022/11/26 05:07:44;;;;;;;51.72;15.98;;;3.40;99.90;;;;;;5074904;28;20142;-75
2022/11/26 05:10:10;;;;;;;56.50;15.57;;;3.40;99.90;;;;;;5074640;28;20529;-75
2022/11/26 05:12:36;;;;;;;53.05;15.27;;;3.40;99.90;;;;;;5074565;28;20054;-74
2022/11/26 05:15:03;;;;;;;54.95;15.18;;;3.30;99.90;;;;;;5056732;28;20088;-74
2022/11/26 05:17:29;;;;;;;54.30;15.02;;;3.40;99.90;;;;;;5056453;28;20058;-75
2022/11/26 05:19:54;;;;;;;56.70;15.88;;;3.40;99.90;;;;;;5040757;28;20060;-74
2022/11/26 05:22:20;;;;;;;63.10;15.10;;;3.40;99.90;;;;;;5040730;28;20424;-75
2022/11/26 05:24:46;;;;;;;63.35;14.75;;;3.30;99.90;;;;;;5057372;28;20044;-75
2022/11/26 05:27:12;;;;;;;61.10;14.77;;;3.30;99.90;;;;;;5074507;28;20109;-74
2022/11/26 05:29:37;;;;;;;62.92;14.95;;;3.20;99.90;;;;;;5056514;28;20045;-74
2022/11/26 05:32:03;;;;;;;55.13;14.15;;;3.20;99.90;;;;;;5074393;28;20045;-73
2022/11/26 05:34:30;;;;;;;57.55;15.25;;;3.20;99.90;;;;;;5056823;28;20393;-74
2022/11/26 05:36:55;;;;;;;52.92;14.70;;;3.20;99.90;;;;;;5055866;28;20049;-72
2022/11/26 05:39:21;;;;;;;49.75;13.90;;;3.20;99.90;;;;;;5073627;28;20436;-73
2022/11/26 05:41:47;;;;;;;63.08;15.27;;;3.10;99.90;;;;;;5056348;28;20048;-74
2022/11/26 05:44:13;;;;;;;60.40;14.68;;;3.20;99.90;;;;;;5055582;28;20322;-75
2022/11/26 05:46:40;;;;;;;66.05;14.63;;;3.20;99.90;;;;;;5074066;28;20103;-74
2022/11/26 05:49:06;;;;;;;;;;;3.20;99.90;;;;;;5039696;28;20056;-74
2022/11/26 05:51:32;;;;;;;47.65;12.65;;;3.20;99.90;;;;;;5073480;28;19920;-74
2022/11/26 05:53:57;;;;;;;54.83;14.80;;;3.30;99.90;;;;;;5073977;28;20079;-74
2022/11/26 05:56:23;;;;;;;55.83;14.38;;;3.40;99.90;;;;;;5057147;28;20368;-73
2022/11/26 05:58:49;;;;;;;53.00;13.70;;;3.20;99.90;;;;;;5041326;28;20044;-75
2022/11/26 06:01:15;;;;;;;65.32;14.80;;;3.20;99.90;;;;;;5076853;28;20087;-74
2022/11/26 06:03:40;;;;;;;54.55;13.65;;;3.20;99.90;;;;;;5077297;28;20127;-75
2022/11/26 06:06:06;;;;;;;53.38;14.70;;;3.20;99.90;;;;;;5055405;28;20036;-75
2022/11/26 06:08:32;;;;;;;57.63;14.65;;;3.20;99.90;;;;;;5055357;28;20059;-73
2022/11/26 06:10:58;;;;;;;58.35;14.38;;;3.20;99.90;;;;;;5055484;28;20049;-74
2022/11/26 06:13:24;;;;;;;50.17;14.52;;;3.20;99.90;;;;;;5055434;28;20405;-74
2022/11/26 06:15:49;;;;;;;54.20;13.57;;;3.20;99.90;;;;;;5074061;28;20049;-73
2022/11/26 06:18:16;;;;;;;55.80;13.77;;;3.20;99.90;;;;;;5073873;28;20076;-74
2022/11/26 06:20:42;;;;;;;58.55;14.70;;;3.20;99.90;;;;;;5055399;28;20071;-75
2022/11/26 06:23:07;;;;;;;63.13;13.80;;;3.30;99.90;;;;;;5039360;28;20060;-75
2022/11/26 06:25:33;;;;;;;46.00;13.63;;;3.30;99.90;;;;;;5023155;28;20374;-74
2022/11/26 06:27:59;;;;;;;55.30;14.48;;;3.10;99.90;;;;;;5055810;28;20152;-74
2022/11/26 06:30:26;;;;;;;47.25;13.77;;;3.10;99.90;;;;;;5056273;28;20099;-76
2022/11/26 06:32:52;;;;;;;68.28;14.70;;;3.10;99.90;;;;;;5075390;28;20410;-76
2022/11/26 06:35:17;;;;;;;53.22;14.82;;;3.10;99.90;;;;;;5073717;28;20051;-75
2022/11/26 06:37:43;;;;;;;52.55;14.13;;;3.10;99.90;;;;;;5073910;28;20052;-76
2022/11/26 06:40:15;;;;;;;64.18;15.10;;;3.10;99.90;;;;;;5055897;28;20044;-76
2022/11/26 06:42:41;;;;;;;58.08;14.70;;;3.00;99.90;;;;;;5056427;28;20090;-76
2022/11/26 06:45:07;;;;;;;51.08;16.35;;;3.00;99.90;;;;;;5055027;28;20040;-72
2022/11/26 06:47:33;;;;;;;52.72;16.13;;;3.10;99.90;;;;;;5073539;28;20079;-74
2022/11/26 06:49:59;;;;;;;55.80;15.55;;;3.10;99.90;;;;;;5056183;28;20037;-73
2022/11/26 06:52:24;;;;;;;60.55;16.23;;;3.10;99.90;;;;;;5077390;28;20080;-74
2022/11/26 06:54:50;;;;;;;53.50;15.90;;;3.20;99.90;;;;;;5083178;28;20403;-74
2022/11/26 06:57:16;;;;;;;61.88;15.93;;;3.10;99.90;;;;;;5042619;28;20056;-75
2022/11/26 06:59:41;;;;;;;67.32;16.55;;;3.10;99.90;;;;;;5056469;28;20392;-73
2022/11/26 07:02:09;;;;;;;53.33;15.80;;;3.20;99.90;;;;;;5056382;28;20048;-74
2022/11/26 07:04:34;;;;;;;60.25;15.30;;;3.10;99.90;;;;;;5072973;28;20044;-74
2022/11/26 07:07:00;;;;;;;52.88;15.30;;;3.10;99.90;;;;;;5055816;28;20131;-75
2022/11/26 07:09:26;;;;;;;59.63;15.98;;;3.10;99.90;;;;;;5073046;28;20453;-74
2022/11/26 07:11:51;;;;;;;69.38;15.90;;;3.10;99.90;;;;;;5038938;28;20048;-76
2022/11/26 07:14:17;;;;;;;53.63;15.30;;;3.20;99.90;;;;;;5054762;28;20400;-74
2022/11/26 07:16:43;;;;;;;68.72;16.45;;;3.10;99.90;;;;;;5039349;28;20056;-75
2022/11/26 07:19:13;;;;;;;57.15;15.90;;;3.10;99.90;;;;;;5078757;28;20505;-75
2022/11/26 07:21:39;;;;;;;67.28;16.02;;;3.10;99.90;;;;;;5061299;28;20045;-75
2022/11/26 07:24:05;;;;;;;55.83;15.13;;;3.10;99.90;;;;;;5061884;28;20127;-75
2022/11/26 07:26:31;;;;;;;58.28;15.02;;;3.10;99.90;;;;;;5045833;28;20117;-75
2022/11/26 07:28:56;;;;;;;60.50;15.73;;;3.20;99.90;;;;;;5079453;28;20044;-75
2022/11/26 07:31:22;;;;;;;51.75;15.65;;;3.20;99.90;;;;;;5061340;28;20435;-75
2022/11/26 07:33:49;;;;;;;56.70;15.65;;;3.20;99.90;;;;;;5044485;28;20066;-74
2022/11/26 07:36:21;;;;;;;63.40;16.75;;;3.20;99.90;;;;;;5079867;28;20060;-74
2022/11/26 07:38:47;;;;;;;61.80;15.80;;;3.20;99.90;;;;;;5078981;28;20076;-76
2022/11/26 07:41:16;;;;;;;59.40;16.83;;;3.20;99.90;;;;;;5061475;28;20044;-75
2022/11/26 07:43:44;;;;;;;51.90;15.93;;;3.30;99.90;;;;;;5061645;28;20131;-76
2022/11/26 07:46:13;;;;;;;56.90;16.55;;;3.30;99.90;;;;;;5061106;28;20114;-74
2022/11/26 07:48:39;;;;;;;60.13;16.60;;;3.30;99.90;;;;;;5061258;28;20048;-74
2022/11/26 07:51:07;;;;;;;59.78;16.85;;;3.30;99.90;;;;;;5061223;28;20522;-75
2022/11/26 07:53:35;;;;;;;54.55;16.65;;;3.40;99.90;;;;;;5060895;28;20044;-74
2022/11/26 07:56:04;;;;;;;53.55;16.00;;;3.40;99.90;;;;;;5079588;28;20476;-74
2022/11/26 07:58:30;;;;;;;70.53;18.02;;;3.40;99.90;;;;;;5078586;28;20052;-74
2022/11/26 08:00:55;;;;;;;66.78;17.48;;;3.50;99.90;;;;;;5079293;28;20070;-75
2022/11/26 08:03:21;;;;;;;86.53;19.90;;;3.50;99.90;;;;;;5061793;28;20507;-74
2022/11/26 08:05:47;;;;;;;104.25;20.35;;;3.60;99.90;;;;;;5044679;28;20048;-75
2022/11/26 08:08:12;;;;;;;117.82;19.65;;;3.70;99.90;;;;;;5079055;28;20056;-75
2022/11/26 08:10:38;;;;;;;201.45;22.88;;;3.70;99.90;;;;;;5061129;28;20135;-74
2022/11/26 08:13:05;;;;;;;173.77;22.73;;;3.80;99.90;;;;;;5062986;28;20051;-76
2022/11/26 08:15:31;;;;;;;125.85;20.10;;;3.80;99.90;;;;;;5079626;28;20077;-75
2022/11/26 08:17:57;;;;;;;172.80;23.70;;;3.90;99.90;;;;;;5061125;28;20059;-73
2022/11/26 08:20:24;;;;;;;224.20;25.88;;;3.80;99.90;;;;;;5078753;28;20056;-75
2022/11/26 08:22:50;;;;;;;212.60;24.67;;;3.90;99.90;;;;;;5061135;28;20362;-73
2022/11/26 08:25:16;;;;;;;178.32;26.85;;;3.90;99.90;;;;;;5079014;28;20094;-76
2022/11/26 08:27:42;;;;;;;96.13;20.70;;;3.90;99.90;;;;;;5079347;28;20123;-76
2022/11/26 08:30:09;;;;;;;118.10;22.13;;;3.90;99.90;;;;;;5059555;28;20365;-74
2022/11/26 08:32:35;;;;;;;96.18;20.23;;;4.00;99.90;;;;;;5057903;28;20041;-74
2022/11/26 08:35:02;;;;;;;73.70;19.88;;;4.00;99.90;;;;;;5057763;28;20499;-75
2022/11/26 08:37:28;;;;;;;70.07;20.60;;;4.00;99.90;;;;;;5057264;28;20049;-73
2022/11/26 08:39:54;;;;;;;84.35;22.23;;;4.10;99.90;;;;;;5057436;28;20132;-75
2022/11/26 08:42:20;;;;;;;72.10;21.40;;;4.10;99.90;;;;;;5075152;28;20131;-74
2022/11/26 08:44:45;;;;;;;75.45;21.38;;;4.20;99.90;;;;;;5057513;28;20056;-74
2022/11/26 08:47:11;;;;;;;72.00;21.45;;;4.20;99.90;;;;;;5057135;28;20045;-74
2022/11/26 08:49:37;;;;;;;70.03;20.67;;;4.20;99.90;;;;;;5040828;28;20049;-74
2022/11/26 08:52:03;;;;;;;66.88;20.48;;;4.20;99.90;;;;;;5075323;28;20101;-75
2022/11/26 08:54:29;;;;;;;68.28;20.75;;;4.30;99.90;;;;;;5040687;28;20571;-75
2022/11/26 08:56:55;;;;;;;79.05;21.13;;;4.30;99.90;;;;;;5075372;28;20075;-75
2022/11/26 08:59:23;;;;;;;73.18;21.15;;;4.30;99.90;;;;;;5041346;28;20052;-77
2022/11/26 09:01:49;;;;;;;73.35;22.25;;;4.40;99.90;;;;;;5057955;28;20388;-73
2022/11/26 09:04:15;;;;;;;70.30;22.40;;;4.50;99.90;;;;;;5057372;28;20104;-73
2022/11/26 09:06:41;;;;;;;77.40;21.50;;;4.50;99.90;;;;;;5057333;28;20449;-75
2022/11/26 09:09:13;;;;;;;73.93;22.30;;;4.50;99.90;;;;;;5040614;28;20050;-75
2022/11/26 09:11:45;;;;;;;75.95;21.83;;;4.60;99.90;;;;;;5040853;28;20438;-75
2022/11/26 09:14:12;;;;;;;74.63;21.40;;;4.70;99.90;;;;;;5057589;28;20059;-75
2022/11/26 09:16:38;;;;;;;;;;;4.70;99.90;;;;;;5057634;28;20124;-75
2022/11/26 09:19:05;;;;;;;79.60;21.45;;;4.80;99.90;;;;;;5057770;28;19967;-77
2022/11/26 09:21:33;;;;;;;85.28;24.10;;;5.00;99.90;;;;;;5057703;28;20060;-74
2022/11/26 09:23:59;;;;;;;102.78;25.75;;;5.10;99.90;;;;;;5057261;28;20048;-76
2022/11/26 09:26:25;;;;;;;94.18;24.70;;;5.10;99.90;;;;;;5057358;28;20056;-73
2022/11/26 09:28:51;;;;;;;102.97;26.23;;;5.20;99.90;;;;;;5056753;28;20563;-75
2022/11/26 09:31:17;;;;;;;116.10;28.00;;;5.20;99.90;;;;;;5074748;28;20040;-74
2022/11/26 09:33:43;;;;;;;134.75;28.33;;;5.30;99.90;;;;;;5056793;28;20080;-75
2022/11/26 09:36:12;;;;;;;120.07;27.90;;;5.30;99.90;;;;;;5057483;28;20059;-75
2022/11/26 09:38:39;;;;;;;115.25;28.20;;;5.40;99.90;;;;;;5075140;28;20127;-76
2022/11/26 09:41:28;;;;;;;140.63;29.73;;;5.40;99.90;;;;;;5056964;28;20057;-74
2022/11/26 09:44:25;;;;;;;135.57;29.52;;;5.40;99.90;;;;;;5059004;28;20055;-73
2022/11/26 09:47:21;;;;;;;125.22;30.42;;;5.50;99.90;;;;;;5088313;28;20055;-74
2022/11/26 09:50:10;;;;;;;128.63;30.10;;;5.60;99.90;;;;;;5076965;28;20036;-72
2022/11/26 09:52:47;;;;;;;148.13;30.77;;;5.70;99.90;;;;;;5074596;28;20041;-74
2022/11/26 09:55:26;;;;;;;150.68;31.67;;;5.70;99.90;;;;;;5074759;28;20137;-73
2022/11/26 09:58:01;;;;;;;160.48;32.55;;;5.80;99.90;;;;;;5074161;28;20433;-74
2022/11/26 10:00:33;;;;;;;169.23;32.25;;;5.80;99.90;;;;;;5073781;28;20501;-73
2022/11/26 10:02:59;;;;;;;171.00;33.08;;;5.90;99.90;;;;;;5039618;28;20135;-72
2022/11/26 10:05:55;;;;;;;219.65;35.47;;;5.90;99.90;;;;;;5056136;28;20044;-73
2022/11/26 10:08:54;;;;;;;160.98;31.98;;;6.00;99.90;;;;;;5073734;28;20056;-75
2022/11/26 10:11:42;;;;;;;155.13;32.40;;;6.00;99.90;;;;;;5056072;28;20085;-75
2022/11/26 10:14:43;;;;;;;180.27;34.85;;;6.00;99.90;;;;;;5056427;28;20059;-76
2022/11/26 10:17:22;;;;;;;138.45;32.17;;;6.00;99.90;;;;;;5055690;28;20081;-74
2022/11/26 10:19:56;;;;;;;144.15;33.53;;;6.20;99.90;;;;;;5073214;28;20132;-75
2022/11/26 10:22:36;;;;;;;167.05;32.83;;;6.30;99.90;;;;;;5056009;28;20052;-73
2022/11/26 10:25:12;;;;;;;153.55;33.85;;;6.40;99.90;;;;;;5055664;28;20044;-74
2022/11/26 10:27:38;;;;;;;129.25;32.65;;;6.50;99.90;;;;;;5055204;28;20040;-75
2022/11/26 10:30:25;;;;;;;146.88;33.65;;;6.60;99.90;;;;;;5055480;28;20047;-73
2022/11/26 10:32:53;;;;;;;148.02;33.55;;;6.70;99.90;;;;;;5073257;28;20048;-73
2022/11/26 10:35:24;;;;;;;137.05;32.17;;;6.70;99.90;;;;;;5055898;28;20107;-73
2022/11/26 10:37:50;;;;;;;128.75;31.60;;;6.70;99.90;;;;;;5073104;28;20121;-74
2022/11/26 10:40:24;;;;;;;131.65;31.52;;;6.70;99.90;;;;;;5038777;28;20079;-73
2022/11/26 10:43:20;;;;;;;137.20;32.42;;;6.70;99.90;;;;;;5054946;28;20048;-75
2022/11/26 10:45:51;;;;;;;131.43;32.53;;;6.80;99.90;;;;;;5054956;28;20045;-74
2022/11/26 10:48:27;;;;;;;122.05;30.35;;;6.80;99.90;;;;;;5072731;28;20062;-73
2022/11/26 10:51:14;;;;;;;124.15;31.00;;;6.80;99.90;;;;;;5054553;28;20040;-75
2022/11/26 10:54:01;;;;;;;124.45;30.17;;;6.80;99.90;;;;;;5072229;28;20189;-74
2022/11/26 10:56:44;;;;;;;134.13;33.47;;;6.90;99.90;;;;;;5054709;28;20059;-74
2022/11/26 10:59:27;;;;;;;115.15;30.55;;;6.90;99.90;;;;;;5072554;28;20140;-74
2022/11/26 11:01:59;;;;;;;117.00;30.15;;;6.90;99.90;;;;;;5072667;28;20183;-74
2022/11/26 11:04:39;;;;;;;96.07;27.70;;;7.00;99.90;;;;;;5055574;28;20443;-75
2022/11/26 11:07:05;;;;;;;112.90;28.90;;;7.00;99.90;;;;;;5055750;28;20063;-74
2022/11/26 11:09:36;;;;;;;95.43;28.20;;;7.10;99.90;;;;;;5038443;28;20048;-75
2022/11/26 11:12:11;;;;;;;98.20;28.85;;;7.10;99.90;;;;;;5054449;28;20052;-74
2022/11/26 11:14:39;;;;;;;93.75;26.30;;;7.10;99.90;;;;;;5073025;28;20049;-74
2022/11/26 11:17:05;;;;;;;93.65;26.92;;;7.20;99.90;;;;;;5072902;28;20501;-76
2022/11/26 11:19:32;;;;;;;99.93;27.52;;;7.20;99.90;;;;;;5074903;28;20071;-76
2022/11/26 11:21:58;;;;;;;100.55;27.35;;;7.20;99.90;;;;;;5074187;28;20045;-73
2022/11/26 11:24:28;;;;;;;101.57;26.83;;;7.20;99.90;;;;;;5074032;28;20075;-76
2022/11/26 11:27:01;;;;;;;94.70;26.50;;;7.30;99.90;;;;;;5073592;28;20527;-74
2022/11/26 11:29:35;;;;;;;90.85;27.08;;;7.40;99.90;;;;;;5055396;28;20500;-75
2022/11/26 11:32:22;;;;;;;92.80;26.60;;;7.40;99.90;;;;;;5073302;28;20052;-75
2022/11/26 11:34:48;;;;;;;91.47;25.63;;;7.50;99.90;;;;;;5074796;28;20130;-75
2022/11/26 11:37:17;;;;;;;89.78;25.25;;;7.50;99.90;;;;;;5057879;28;20060;-76
2022/11/26 11:39:44;;;;;;;88.82;26.75;;;7.60;99.90;;;;;;5077170;28;20049;-76
2022/11/26 11:42:39;;;;;;;102.63;27.63;;;7.60;99.90;;;;;;5041590;28;20048;-75
2022/11/26 11:45:21;;;;;;;84.68;24.13;;;7.60;99.90;;;;;;5072051;28;20053;-77
2022/11/26 11:47:55;;;;;;;80.38;24.63;;;7.70;99.90;;;;;;5040436;28;20051;-74
2022/11/26 11:50:37;;;;;;;79.82;24.85;;;7.70;99.90;;;;;;5075675;28;20122;-76
2022/11/26 11:53:32;;;;;;;85.03;24.13;;;7.70;99.90;;;;;;5057925;28;20084;-76
2022/11/26 11:56:34;;;;;;;72.35;23.52;;;7.80;99.90;;;;;;5072791;28;20186;-77
2022/11/26 11:59:23;;;;;;;73.57;23.42;;;7.80;99.90;;;;;;5073688;28;20060;-74
2022/11/26 12:02:09;;;;;;;82.45;24.83;;;7.90;99.90;;;;;;5058045;28;20053;-76
2022/11/26 12:04:55;;;;;;;83.23;23.07;;;7.80;99.90;;;;;;5045408;28;20128;-77
2022/11/26 12:07:30;;;;;;;81.00;25.10;;;7.90;99.90;;;;;;5061447;28;20503;-78
2022/11/26 12:10:26;;;;;;;73.13;24.10;;;7.90;99.90;;;;;;5060737;28;20044;-75
2022/11/26 12:12:55;;;;;;;80.18;23.65;;;7.90;99.90;;;;;;5059251;28;20048;-74
2022/11/26 12:15:41;;;;;;;79.60;23.77;;;8.00;99.90;;;;;;5081169;28;20045;-76
2022/11/26 12:18:42;;;;;;;70.23;22.03;;;8.00;99.90;;;;;;5068158;28;20044;-75
2022/11/26 12:21:12;;;;;;;78.05;24.15;;;8.00;99.90;;;;;;5070764;28;20121;-78
2022/11/26 12:24:05;;;;;;;67.10;20.08;;;8.00;99.90;;;;;;5069655;28;20104;-75
2022/11/26 12:26:41;;;;;;;62.38;19.50;;;8.00;99.90;;;;;;5085905;28;20123;-73
2022/11/26 12:29:43;;;;;;;60.23;19.17;;;8.00;99.90;;;;;;5085962;28;20096;-77
2022/11/26 12:32:24;;;;;;;57.65;18.90;;;8.10;99.90;;;;;;5084098;28;20082;-77
2022/11/26 12:34:54;;;;;;;62.50;19.40;;;8.10;99.90;;;;;;5085155;28;20048;-73
2022/11/26 12:37:31;;;;;;;55.20;19.40;;;8.10;99.90;;;;;;5087195;28;20075;-76
2022/11/26 12:40:07;;;;;;;;;;;8.10;99.90;;;;;;5075323;28;20088;-75
2022/11/26 12:42:46;;;;;;;62.65;19.58;;;8.10;99.90;;;;;;5092958;28;19920;-79
2022/11/26 12:45:19;;;;;;;73.07;21.60;;;8.10;99.90;;;;;;5089650;28;20058;-75
2022/11/26 12:47:58;;;;;;;60.28;19.42;;;8.10;99.90;;;;;;5084094;28;20048;-78
2022/11/26 12:50:40;;;;;;;65.05;18.40;;;8.20;99.90;;;;;;5079626;28;20056;-76
2022/11/26 12:53:32;;;;;;;60.63;19.80;;;8.30;99.90;;;;;;5060853;28;20040;-77